CCA1359 ZBAA-ZGGG
Flight info
| Callsign | CCA1359 |
|---|---|
| Flight time | N/A |
| Altitude | 38000 |
| Route | RUSDO W45 IKAVO |
| Aircraft | B744/H-SDE3FGHIM1M2RWXY/LB1 |
Departure
| Time | N/A |
|---|---|
| Airport | Beijing Capital International Airport (ZBAA) |
Arrival
| Time | 2026-04-30 05:10 |
|---|---|
| Airport | Guangzhou Baiyun International Airport (ZGGG) |
| Time | Latitude | Longitude | Altitude | Speed | Heading |
|---|---|---|---|---|---|
| 2026-04-30 04:47 | 24.36278 | 113.05741 | 24273 ft | 496 kts | 165° |
| 2026-04-30 04:47 | 24.32955 | 113.06723 | 23723 ft | 492 kts | 171° |
| 2026-04-30 04:48 | 24.29626 | 113.07476 | 23175 ft | 486 kts | 172° |
| 2026-04-30 04:48 | 24.26332 | 113.08269 | 22623 ft | 481 kts | 170° |
| 2026-04-30 04:48 | 24.23106 | 113.09135 | 22152 ft | 472 kts | 169° |
| 2026-04-30 04:48 | 24.19977 | 113.09988 | 21905 ft | 456 kts | 169° |
| 2026-04-30 04:49 | 24.16949 | 113.10808 | 21653 ft | 442 kts | 169° |
| 2026-04-30 04:49 | 24.14005 | 113.11606 | 21400 ft | 429 kts | 169° |
| 2026-04-30 04:49 | 24.11148 | 113.12378 | 21147 ft | 417 kts | 170° |
| 2026-04-30 04:49 | 24.09034 | 113.12949 | 20955 ft | 408 kts | 170° |
| 2026-04-30 04:50 | 24.06316 | 113.13682 | 20702 ft | 397 kts | 170° |
| 2026-04-30 04:50 | 24.03658 | 113.14400 | 20451 ft | 390 kts | 170° |
| 2026-04-30 04:50 | 24.01034 | 113.15098 | 20200 ft | 386 kts | 170° |
| 2026-04-30 04:50 | 23.98438 | 113.15786 | 19949 ft | 382 kts | 170° |
| 2026-04-30 04:51 | 23.95863 | 113.16473 | 19698 ft | 379 kts | 170° |
| 2026-04-30 04:51 | 23.93306 | 113.17154 | 19448 ft | 378 kts | 170° |
| 2026-04-30 04:51 | 23.90760 | 113.17830 | 19198 ft | 377 kts | 170° |
| 2026-04-30 04:51 | 23.88216 | 113.18505 | 18947 ft | 375 kts | 170° |
| 2026-04-30 04:52 | 23.85684 | 113.19176 | 18696 ft | 373 kts | 170° |
| 2026-04-30 04:52 | 23.83171 | 113.19842 | 18446 ft | 371 kts | 170° |
| 2026-04-30 04:52 | 23.80657 | 113.20508 | 18146 ft | 370 kts | 170° |
| 2026-04-30 04:52 | 23.78160 | 113.21169 | 17845 ft | 368 kts | 170° |
| 2026-04-30 04:53 | 23.75686 | 113.21824 | 17545 ft | 366 kts | 170° |
| 2026-04-30 04:53 | 23.73218 | 113.22477 | 17244 ft | 364 kts | 170° |
| 2026-04-30 04:53 | 23.70761 | 113.23127 | 16944 ft | 362 kts | 170° |
| 2026-04-30 04:53 | 23.68309 | 113.23726 | 16634 ft | 359 kts | 176° |
| 2026-04-30 04:54 | 23.65826 | 113.23791 | 16339 ft | 355 kts | 186° |
| 2026-04-30 04:54 | 23.63386 | 113.23528 | 16038 ft | 350 kts | 191° |
| 2026-04-30 04:54 | 23.60999 | 113.23069 | 15738 ft | 347 kts | 195° |
| 2026-04-30 04:54 | 23.58645 | 113.22523 | 15437 ft | 344 kts | 195° |
| 2026-04-30 04:55 | 23.56304 | 113.22008 | 15135 ft | 342 kts | 194° |
| 2026-04-30 04:55 | 23.53975 | 113.21526 | 14836 ft | 340 kts | 194° |
| 2026-04-30 04:55 | 23.51653 | 113.21050 | 14535 ft | 339 kts | 194° |
| 2026-04-30 04:55 | 23.49371 | 113.20576 | 14240 ft | 338 kts | 195° |
| 2026-04-30 04:56 | 23.47041 | 113.20082 | 13935 ft | 336 kts | 195° |
| 2026-04-30 04:56 | 23.44753 | 113.19598 | 13635 ft | 334 kts | 195° |
| 2026-04-30 04:56 | 23.42499 | 113.19123 | 13337 ft | 333 kts | 195° |
| 2026-04-30 04:56 | 23.40230 | 113.18643 | 13032 ft | 332 kts | 195° |
| 2026-04-30 04:57 | 23.37972 | 113.18166 | 12738 ft | 331 kts | 194° |
| 2026-04-30 04:57 | 23.35718 | 113.17691 | 12440 ft | 329 kts | 194° |
| 2026-04-30 04:57 | 23.33477 | 113.17219 | 12137 ft | 327 kts | 194° |
| 2026-04-30 04:57 | 23.31248 | 113.16749 | 11834 ft | 326 kts | 194° |
| 2026-04-30 04:58 | 23.29019 | 113.16280 | 11535 ft | 325 kts | 194° |
| 2026-04-30 04:58 | 23.26805 | 113.15816 | 11234 ft | 323 kts | 194° |
| 2026-04-30 04:58 | 23.24601 | 113.15352 | 10978 ft | 322 kts | 194° |
| 2026-04-30 04:58 | 23.22402 | 113.14890 | 11017 ft | 321 kts | 194° |
| 2026-04-30 04:59 | 23.20211 | 113.14428 | 11031 ft | 322 kts | 194° |
| 2026-04-30 04:59 | 23.17999 | 113.13909 | 10712 ft | 321 kts | 196° |
| 2026-04-30 04:59 | 23.15866 | 113.13328 | 10404 ft | 318 kts | 197° |
| 2026-04-30 04:59 | 23.13776 | 113.12716 | 10352 ft | 303 kts | 198° |
| 2026-04-30 05:00 | 23.11771 | 113.12156 | 10291 ft | 295 kts | 196° |
| 2026-04-30 05:00 | 23.09758 | 113.11630 | 10022 ft | 299 kts | 196° |
| 2026-04-30 05:00 | 23.07712 | 113.11088 | 9639 ft | 297 kts | 196° |
| 2026-04-30 05:00 | 23.05743 | 113.10563 | 9267 ft | 294 kts | 196° |
| 2026-04-30 05:01 | 23.03763 | 113.10087 | 8878 ft | 291 kts | 187° |
| 2026-04-30 05:01 | 23.01736 | 113.10351 | 8491 ft | 292 kts | 162° |
| 2026-04-30 05:01 | 23.00056 | 113.11493 | 8114 ft | 291 kts | 137° |
| 2026-04-30 05:01 | 22.98954 | 113.13342 | 7731 ft | 289 kts | 112° |
| 2026-04-30 05:02 | 22.98685 | 113.15457 | 7362 ft | 289 kts | 87° |
| 2026-04-30 05:02 | 22.99261 | 113.17520 | 6996 ft | 287 kts | 63° |
| 2026-04-30 05:02 | 23.00432 | 113.19252 | 6639 ft | 284 kts | 48° |
| 2026-04-30 05:02 | 23.01887 | 113.20684 | 6260 ft | 281 kts | 36° |
| 2026-04-30 05:03 | 23.03583 | 113.21703 | 5898 ft | 278 kts | 24° |
| 2026-04-30 05:03 | 23.05423 | 113.22418 | 5525 ft | 276 kts | 17° |
| 2026-04-30 05:03 | 23.07265 | 113.22950 | 5148 ft | 274 kts | 13° |
| 2026-04-30 05:03 | 23.09115 | 113.23312 | 4772 ft | 272 kts | 7° |
| 2026-04-30 05:04 | 23.10994 | 113.23642 | 4432 ft | 268 kts | 12° |
| 2026-04-30 05:04 | 23.12749 | 113.24139 | 4231 ft | 260 kts | 15° |
| 2026-04-30 05:04 | 23.14477 | 113.24663 | 4038 ft | 249 kts | 15° |
| 2026-04-30 05:04 | 23.16095 | 113.25126 | 3826 ft | 237 kts | 14° |
| 2026-04-30 05:05 | 23.17664 | 113.25561 | 3632 ft | 224 kts | 14° |
| 2026-04-30 05:05 | 23.19112 | 113.25955 | 3450 ft | 211 kts | 14° |
| 2026-04-30 05:05 | 23.20491 | 113.26328 | 3277 ft | 200 kts | 14° |
| 2026-04-30 05:06 | 23.23169 | 113.27050 | 2799 ft | 193 kts | 14° |
| 2026-04-30 05:06 | 23.24434 | 113.27391 | 2562 ft | 183 kts | 14° |
| 2026-04-30 05:06 | 23.25637 | 113.27715 | 2303 ft | 173 kts | 14° |
| 2026-04-30 05:06 | 23.26779 | 113.28023 | 2099 ft | 165 kts | 14° |
| 2026-04-30 05:07 | 23.27858 | 113.28314 | 1917 ft | 154 kts | 14° |
| 2026-04-30 05:07 | 23.28881 | 113.28590 | 1694 ft | 150 kts | 14° |
| 2026-04-30 05:07 | 23.29878 | 113.28859 | 1475 ft | 146 kts | 14° |
| 2026-04-30 05:07 | 23.30852 | 113.29122 | 1278 ft | 143 kts | 14° |
| 2026-04-30 05:08 | 23.31814 | 113.29378 | 1083 ft | 142 kts | 14° |
| 2026-04-30 05:08 | 23.32785 | 113.29629 | 901 ft | 143 kts | 14° |
| 2026-04-30 05:08 | 23.33746 | 113.29909 | 696 ft | 144 kts | 14° |
| 2026-04-30 05:08 | 23.34719 | 113.30187 | 508 ft | 145 kts | 13° |
| 2026-04-30 05:09 | 23.35702 | 113.30437 | 323 ft | 145 kts | 13° |
| 2026-04-30 05:09 | 23.36677 | 113.30695 | 134 ft | 143 kts | 13° |
| 2026-04-30 05:09 | 23.37612 | 113.30937 | 63 ft | 128 kts | 18° |
| 2026-04-30 05:09 | 23.38272 | 113.31124 | 63 ft | 65 kts | 13° |
| 2026-04-30 05:10 | 23.38614 | 113.31210 | 62 ft | 47 kts | 357° |
| 2026-04-30 05:10 | 23.38799 | 113.31170 | 62 ft | 7 kts | 346° |
| 2026-04-30 05:10 | 23.38847 | 113.31157 | 62 ft | 7 kts | 346° |
| 2026-04-30 05:10 | 23.38908 | 113.31140 | 62 ft | 11 kts | 346° |
| 2026-04-30 05:11 | 23.38979 | 113.31123 | 62 ft | 10 kts | 354° |
| 2026-04-30 05:11 | 23.39047 | 113.31135 | 62 ft | 10 kts | 13° |
| 2026-04-30 05:11 | 23.39112 | 113.31152 | 62 ft | 9 kts | 14° |
| 2026-04-30 05:11 | 23.39199 | 113.31175 | 62 ft | 21 kts | 14° |
| 2026-04-30 05:12 | 23.39371 | 113.31221 | 62 ft | 25 kts | 13° |
| 2026-04-30 05:12 | 23.39533 | 113.31265 | 62 ft | 23 kts | 14° |
| 2026-04-30 05:12 | 23.39684 | 113.31307 | 62 ft | 22 kts | 13° |
| 2026-04-30 05:12 | 23.39827 | 113.31345 | 62 ft | 21 kts | 13° |
| 2026-04-30 05:13 | 23.39982 | 113.31387 | 62 ft | 23 kts | 14° |
| 2026-04-30 05:13 | 23.40131 | 113.31428 | 62 ft | 22 kts | 14° |
| 2026-04-30 05:13 | 23.40275 | 113.31466 | 62 ft | 21 kts | 13° |
| 2026-04-30 05:13 | 23.40412 | 113.31503 | 62 ft | 20 kts | 14° |
| 2026-04-30 05:14 | 23.40543 | 113.31539 | 62 ft | 19 kts | 14° |
| 2026-04-30 05:14 | 23.40665 | 113.31572 | 62 ft | 18 kts | 14° |
| 2026-04-30 05:14 | 23.40783 | 113.31603 | 62 ft | 14 kts | 13° |
| 2026-04-30 05:14 | 23.40848 | 113.31602 | 62 ft | 5 kts | 290° |
| 2026-04-30 05:15 | 23.40856 | 113.31559 | 62 ft | 12 kts | 281° |
| 2026-04-30 05:15 | 23.40877 | 113.31462 | 62 ft | 13 kts | 284° |
| 2026-04-30 05:15 | 23.40898 | 113.31370 | 62 ft | 12 kts | 284° |
| 2026-04-30 05:15 | 23.40919 | 113.31281 | 62 ft | 12 kts | 284° |
| 2026-04-30 05:16 | 23.40938 | 113.31196 | 62 ft | 11 kts | 283° |
| 2026-04-30 05:16 | 23.40910 | 113.31133 | 62 ft | 11 kts | 192° |
| 2026-04-30 05:16 | 23.40823 | 113.31111 | 62 ft | 13 kts | 194° |
| 2026-04-30 05:16 | 23.40737 | 113.31087 | 62 ft | 12 kts | 194° |
| 2026-04-30 05:17 | 23.40642 | 113.31062 | 62 ft | 16 kts | 194° |
| 2026-04-30 05:17 | 23.40537 | 113.31033 | 62 ft | 15 kts | 194° |
| 2026-04-30 05:17 | 23.40440 | 113.31006 | 62 ft | 13 kts | 202° |
| 2026-04-30 05:17 | 23.40444 | 113.30912 | 62 ft | 17 kts | 287° |
| 2026-04-30 05:18 | 23.40474 | 113.30789 | 62 ft | 16 kts | 284° |
| 2026-04-30 05:18 | 23.40501 | 113.30673 | 62 ft | 15 kts | 283° |
| 2026-04-30 05:18 | 23.40525 | 113.30564 | 62 ft | 14 kts | 284° |
| 2026-04-30 05:18 | 23.40548 | 113.30462 | 62 ft | 13 kts | 284° |
| 2026-04-30 05:19 | 23.40570 | 113.30367 | 62 ft | 13 kts | 284° |
| 2026-04-30 05:19 | 23.40591 | 113.30273 | 62 ft | 13 kts | 284° |
| 2026-04-30 05:19 | 23.40612 | 113.30182 | 62 ft | 12 kts | 284° |
| 2026-04-30 05:19 | 23.40635 | 113.30082 | 62 ft | 13 kts | 284° |
| 2026-04-30 05:20 | 23.40658 | 113.29981 | 62 ft | 18 kts | 284° |
| 2026-04-30 05:20 | 23.40689 | 113.29848 | 62 ft | 18 kts | 284° |
| 2026-04-30 05:20 | 23.40708 | 113.29762 | 62 ft | 17 kts | 284° |
| 2026-04-30 05:20 | 23.40744 | 113.29603 | 62 ft | 16 kts | 284° |
| 2026-04-30 05:21 | 23.40767 | 113.29503 | 62 ft | 11 kts | 284° |
| 2026-04-30 05:21 | 23.40719 | 113.29453 | 62 ft | 11 kts | 195° |
| 2026-04-30 05:21 | 23.40622 | 113.29425 | 62 ft | 18 kts | 194° |
| 2026-04-30 05:21 | 23.40507 | 113.29394 | 62 ft | 17 kts | 194° |
| 2026-04-30 05:22 | 23.40432 | 113.29374 | 62 ft | 16 kts | 193° |
| 2026-04-30 05:22 | 23.40327 | 113.29346 | 62 ft | 15 kts | 194° |
| 2026-04-30 05:22 | 23.40228 | 113.29320 | 62 ft | 14 kts | 194° |
| 2026-04-30 05:22 | 23.40077 | 113.29278 | 62 ft | 24 kts | 194° |
| 2026-04-30 05:23 | 23.39970 | 113.29249 | 62 ft | 23 kts | 194° |
| 2026-04-30 05:23 | 23.39819 | 113.29208 | 62 ft | 22 kts | 194° |
| 2026-04-30 05:23 | 23.39675 | 113.29169 | 62 ft | 21 kts | 194° |
| 2026-04-30 05:23 | 23.39536 | 113.29132 | 62 ft | 20 kts | 194° |
| 2026-04-30 05:24 | 23.39405 | 113.29097 | 62 ft | 19 kts | 194° |
| 2026-04-30 05:24 | 23.39281 | 113.29063 | 62 ft | 18 kts | 194° |
| 2026-04-30 05:24 | 23.39160 | 113.29030 | 62 ft | 17 kts | 194° |
| 2026-04-30 05:24 | 23.39048 | 113.29000 | 62 ft | 16 kts | 193° |
| 2026-04-30 05:25 | 23.38942 | 113.28972 | 62 ft | 15 kts | 194° |
| 2026-04-30 05:25 | 23.38842 | 113.28945 | 62 ft | 14 kts | 194° |
| 2026-04-30 05:25 | 23.38751 | 113.28920 | 62 ft | 9 kts | 191° |
| 2026-04-30 05:25 | 23.38715 | 113.28949 | 62 ft | 7 kts | 104° |
| 2026-04-30 05:26 | 23.38695 | 113.28994 | 62 ft | 7 kts | 147° |
| 2026-04-30 05:26 | 23.38660 | 113.29009 | 62 ft | 5 kts | 149° |
| 2026-04-30 05:26 | 23.38640 | 113.29034 | 62 ft | 4 kts | 123° |
| 2026-04-30 05:26 | 23.38623 | 113.29061 | 62 ft | 4 kts | 123° |
| 2026-04-30 05:27 | 23.38608 | 113.29087 | 62 ft | 3 kts | 123° |
| 2026-04-30 05:27 | 23.38604 | 113.29094 | 62 ft | 0 kts | 123° |